Time;durP1;ratioP1;P1;durP2;ratioP2;P2;SDS_P1;SDS_P2;PMS_P1;PMS_P2;Temp;Humidity;BMP_temperature;BMP_pressure;BME280_temperature;BME280_humidity;BME280_pressure;Samples;Min_cycle;Max_cycle;Signal;HPM_P1;HPM_P2
2020/12/18 00:01:05;;;;;;;86.63;40.87;;;;;;;1.84;83.68;100788.39;129834;1100;23816;-65
2020/12/18 00:03:33;;;;;;;88.23;43.23;;;;;;;1.86;83.79;100785.53;129963;1096;23181;-65
2020/12/18 00:06:01;;;;;;;95.67;45.40;;;;;;;1.88;83.72;100791.55;129827;1093;23231;-65
2020/12/18 00:08:29;;;;;;;98.87;45.93;;;;;;;1.91;83.90;100791.22;130022;1100;23258;-65
2020/12/18 00:10:56;;;;;;;113.90;51.53;;;;;;;1.92;83.80;100788.36;129815;1093;23286;-65
2020/12/18 00:13:24;;;;;;;109.67;48.60;;;;;;;1.93;83.90;100787.35;129989;1093;23199;-65
2020/12/18 00:15:53;;;;;;;110.90;49.93;;;;;;;1.95;83.66;100787.19;129839;1093;23208;-65
2020/12/18 00:18:20;;;;;;;106.70;50.55;;;;;;;1.96;83.86;100783.48;130500;1089;23911;-65
2020/12/18 00:20:58;;;;;;;107.35;49.35;;;;;;;1.96;83.60;100783.48;130346;1090;23924;-65
2020/12/18 00:23:26;;;;;;;100.57;46.67;;;;;;;1.98;83.46;100778.78;130244;1090;24248;-65
2020/12/18 00:25:53;;;;;;;88.27;40.73;;;;;;;2.00;83.50;100779.45;130252;1090;23222;-65
2020/12/18 00:28:21;;;;;;;85.55;40.50;;;;;;;1.99;83.84;100777.78;130317;1096;23299;-65
2020/12/18 00:30:48;;;;;;;89.03;42.70;;;;;;;1.98;83.13;100785.00;130217;1090;23166;-65
2020/12/18 00:33:16;;;;;;;88.13;41.37;;;;;;;1.97;83.37;100775.26;130318;1095;23236;-65
2020/12/18 00:35:45;;;;;;;87.03;42.60;;;;;;;1.98;83.65;100779.63;130222;1090;23170;-65
2020/12/18 00:38:17;;;;;;;84.50;40.85;;;;;;;2.00;83.90;100774.92;130396;1090;23184;-65
2020/12/18 00:40:46;;;;;;;80.05;38.25;;;;;;;1.99;83.13;100777.78;130279;1098;24082;-65
2020/12/18 00:43:15;;;;;;;93.03;40.97;;;;;;;1.98;83.07;100778.78;130153;1090;23678;-65
2020/12/18 00:45:45;;;;;;;88.00;40.05;;;;;;;1.99;83.58;100777.78;130366;1090;23235;-65
2020/12/18 00:48:12;;;;;;;84.57;40.33;;;;;;;2.00;83.32;100780.30;130197;1089;23293;-65
2020/12/18 00:50:40;;;;;;;84.63;39.20;;;;;;;2.01;83.24;100783.83;130362;1090;23178;-66
2020/12/18 00:53:13;;;;;;;82.23;36.57;;;;;;;2.00;83.22;100776.77;130119;1097;23121;-65
2020/12/18 00:55:42;;;;;;;79.70;35.25;;;;;;;2.00;83.40;100766.02;130298;1090;23235;-65
2020/12/18 00:58:09;;;;;;;75.70;35.40;;;;;;;2.01;82.87;100768.53;130132;1090;23274;-65
2020/12/18 01:00:38;;;;;;;71.90;37.07;;;;;;;2.01;83.34;100767.70;130310;1097;23282;-66
2020/12/18 01:03:09;;;;;;;76.00;36.20;;;;;;;2.00;83.46;100760.64;130105;1090;23226;-65
2020/12/18 01:05:37;;;;;;;78.00;36.63;;;;;;;1.99;82.92;100758.97;129413;1090;23776;-65
2020/12/18 01:08:05;;;;;;;67.77;32.73;;;;;;;1.97;83.31;100756.45;130098;1090;23933;-66
2020/12/18 01:10:33;;;;;;;76.13;35.87;;;;;;;1.97;82.99;100758.30;130208;1090;24294;-66
2020/12/18 01:13:01;;;;;;;76.45;34.85;;;;;;;1.93;83.16;100754.27;130168;1095;23186;-65
2020/12/18 01:15:30;;;;;;;79.73;35.20;;;;;;;1.91;83.02;100758.97;130262;1090;23334;-65
2020/12/18 01:17:59;;;;;;;75.27;35.63;;;;;;;1.89;83.78;100756.45;130111;1090;23261;-66
2020/12/18 01:20:28;;;;;;;74.30;35.90;;;;;;;1.90;82.63;100758.13;130251;1090;23169;-65
2020/12/18 01:23:02;;;;;;;71.77;34.87;;;;;;;1.91;82.94;100750.91;130201;1090;23174;-65
2020/12/18 01:25:31;;;;;;;71.50;34.17;;;;;;;1.92;83.74;100749.89;130347;1090;23858;-65
2020/12/18 01:27:58;;;;;;;72.15;38.60;;;;;;;1.94;83.01;100750.56;130234;1090;23268;-65
2020/12/18 01:30:26;;;;;;;70.37;33.60;;;;;;;1.95;83.83;100745.02;130264;1090;23194;-65
2020/12/18 01:32:54;;;;;;;68.13;35.40;;;;;;;1.96;83.82;100749.39;130300;1096;23218;-66
2020/12/18 01:35:22;;;;;;;66.00;33.93;;;;;;;1.96;83.28;100752.08;130179;1090;23886;-65
2020/12/18 01:37:59;;;;;;;65.00;33.53;;;;;;;1.95;82.71;100744.19;130222;1097;23188;-65
2020/12/18 01:40:27;;;;;;;63.00;30.55;;;;;;;1.93;82.83;100738.14;130117;1090;23250;-65
2020/12/18 01:42:55;;;;;;;56.10;29.37;;;;;;;1.91;83.47;100742.84;130256;1090;23196;-65
2020/12/18 01:45:22;;;;;;;55.63;27.00;;;;;;;1.89;82.57;100743.02;130264;1090;24453;-65
2020/12/18 01:48:04;;;;;;;49.40;24.77;;;;;;;1.90;83.03;100743.85;130287;1090;23161;-65
2020/12/18 01:50:39;;;;;;;47.10;24.83;;;;;;;1.89;82.71;100750.23;130096;1090;23671;-65
2020/12/18 01:53:10;;;;;;;46.70;23.70;;;;;;;1.88;83.34;100748.55;130273;1093;23266;-65
2020/12/18 01:56:03;;;;;;;45.83;24.60;;;;;;;1.87;82.35;100749.59;130081;1090;23156;-65
2020/12/18 01:58:32;;;;;;;45.77;24.60;;;;;;;1.84;82.92;100744.55;130256;1090;23184;-66
2020/12/18 02:01:04;;;;;;;46.13;25.47;;;;;;;1.84;82.42;100739.19;130117;1092;24107;-65
2020/12/18 02:03:37;;;;;;;44.67;24.20;;;;;;;1.83;83.03;100741.03;130219;1091;23194;-65
2020/12/18 02:06:16;;;;;;;46.47;23.07;;;;;;;1.83;82.86;100743.72;130140;1090;23212;-65
2020/12/18 02:08:50;;;;;;;41.60;21.80;;;;;;;1.82;82.61;100735.83;130273;1097;23166;-65
2020/12/18 02:11:32;;;;;;;38.20;21.70;;;;;;;1.82;82.77;100741.20;130115;1090;23202;-65
2020/12/18 02:14:03;;;;;;;34.50;20.33;;;;;;;1.81;82.86;100744.89;130299;1096;23219;-65
2020/12/18 02:16:31;;;;;;;31.35;17.25;;;;;;;1.83;82.82;100740.19;130067;1092;24257;-65
2020/12/18 02:19:04;;;;;;;32.90;17.77;;;;;;;1.80;82.83;100744.05;130206;1093;23435;-65
2020/12/18 02:21:38;;;;;;;34.85;18.05;;;;;;;1.78;83.27;100735.32;130076;1092;23158;-65
2020/12/18 02:24:09;;;;;;;32.75;18.45;;;;;;;1.78;82.07;100729.95;130235;1093;23405;-65
2020/12/18 02:26:37;;;;;;;36.97;17.83;;;;;;;1.76;82.49;100734.65;130041;1093;23888;-65
2020/12/18 02:29:06;;;;;;;30.87;17.60;;;;;;;1.73;82.40;100738.51;130244;1093;23248;-65
2020/12/18 02:31:41;;;;;;;29.83;17.00;;;;;;;1.70;82.72;100733.50;130027;1093;23251;-65
2020/12/18 02:34:24;;;;;;;30.77;16.07;;;;;;;1.69;82.75;100733.67;130167;1098;23178;-65
2020/12/18 02:36:55;;;;;;;31.50;17.25;;;;;;;1.68;82.79;100731.98;130064;1093;23205;-65
2020/12/18 02:39:23;;;;;;;29.20;15.63;;;;;;;1.66;82.86;100732.16;130214;1093;23588;-65
2020/12/18 02:41:55;;;;;;;29.03;16.07;;;;;;;1.68;82.87;100738.20;130081;1093;23308;-65
2020/12/18 02:44:33;;;;;;;32.27;15.80;;;;;;;1.68;82.90;100726.62;130182;1092;23351;-65
2020/12/18 02:47:36;;;;;;;23.65;14.40;;;;;;;1.67;82.38;100730.31;129888;1093;23295;-65
2020/12/18 02:50:08;;;;;;;28.10;14.77;;;;;;;1.68;82.08;100734.68;130251;1090;23784;-65
2020/12/18 02:52:45;;;;;;;27.70;15.77;;;;;;;1.68;82.41;100727.45;130114;1093;24750;-65
2020/12/18 02:55:32;;;;;;;28.70;14.95;;;;;;;1.67;82.20;100727.63;130204;1090;23159;-65
2020/12/18 02:58:32;;;;;;;24.63;14.63;;;;;;;1.67;82.46;100733.84;129994;1091;24344;-65
2020/12/18 03:01:04;;;;;;;27.40;14.63;;;;;;;1.65;82.20;100737.70;130215;1093;23150;-65
2020/12/18 03:03:32;;;;;;;26.47;15.20;;;;;;;1.63;82.29;100731.66;130059;1093;23206;-65
2020/12/18 03:06:38;;;;;;;21.87;13.00;;;;;;;1.54;82.60;100716.58;129976;1090;23159;-65
2020/12/18 03:09:06;;;;;;;24.07;13.23;;;;;;;1.62;82.10;100729.97;130213;1092;23248;-65
2020/12/18 03:11:35;;;;;;;25.23;13.17;;;;;;;1.61;82.38;100728.30;130206;1093;23216;-65
2020/12/18 03:14:03;;;;;;;22.60;12.67;;;;;;;1.61;82.11;100737.19;130130;1098;23795;-65
2020/12/18 03:16:39;;;;;;;24.50;13.22;;;;;;;1.61;82.20;100734.50;127601;1092;23360;-65
2020/12/18 03:19:21;;;;;;;25.70;14.50;;;;;;;1.61;82.40;100728.30;125723;1093;25211;-64
2020/12/18 03:21:51;;;;;;;24.45;14.50;;;;;;;1.58;82.30;100726.81;125854;1097;23329;-64
2020/12/18 03:24:31;;;;;;;22.70;13.60;;;;;;;1.56;82.63;100728.83;125783;1090;23376;-64
2020/12/18 03:27:14;;;;;;;22.83;13.97;;;;;;;1.53;82.49;100731.84;125853;1090;26744;-64
2020/12/18 03:29:51;;;;;;;22.00;12.58;;;;;;;1.48;82.18;100728.82;125903;1097;23412;-64
2020/12/18 03:32:19;;;;;;;19.20;10.70;;;;;;;1.46;81.76;100738.05;130309;1090;23846;-65
2020/12/18 03:34:58;;;;;;;17.30;10.75;;;;;;;1.45;81.98;100739.89;130152;1090;23203;-65
2020/12/18 03:37:28;;;;;;;18.97;10.73;;;;;;;1.44;82.50;100732.03;130281;1097;23220;-65
2020/12/18 03:39:57;;;;;;;22.00;10.50;;;;;;;1.44;81.89;100729.34;130106;1091;23756;-65
2020/12/18 03:42:29;;;;;;;17.00;9.45;;;;;;;1.42;82.10;100732.20;130223;1090;23159;-65
2020/12/18 03:44:57;;;;;;;17.77;10.27;;;;;;;1.38;82.93;100733.54;130162;1096;23297;-65
2020/12/18 03:47:43;;;;;;;17.40;9.90;;;;;;;1.38;82.64;100729.01;125933;1090;23333;-65
2020/12/18 03:50:32;;;;;;;21.93;11.00;;;;;;;1.38;82.29;100737.06;125835;1090;23386;-64
2020/12/18 03:53:17;;;;;;;18.70;9.85;;;;;;;1.35;82.56;100737.39;125942;1097;23497;-64
2020/12/18 03:55:51;;;;;;;18.70;10.20;;;;;;;1.35;82.69;100731.19;125852;1090;23463;-64
2020/12/18 03:58:34;;;;;;;16.30;9.80;;;;;;;1.34;82.07;100726.81;126011;1093;23373;-64
2020/12/18 04:01:16;;;;;;;16.25;8.35;;;;;;;1.35;82.04;100725.81;130262;1096;23284;-66
2020/12/18 04:03:46;;;;;;;15.47;8.37;;;;;;;1.35;82.54;100725.81;130219;1097;24129;-65
2020/12/18 04:06:15;;;;;;;13.30;8.07;;;;;;;1.35;83.12;100718.59;130176;1090;23240;-66
2020/12/18 04:08:43;;;;;;;17.85;9.55;;;;;;;1.17;82.01;100690.25;130339;1095;24085;-65
2020/12/18 04:11:15;;;;;;;14.87;9.07;;;;;;;1.36;83.02;100719.44;130122;1090;23261;-65
2020/12/18 04:13:58;;;;;;;16.33;8.97;;;;;;;1.37;82.65;100721.12;130252;1090;24196;-65
2020/12/18 04:16:33;;;;;;;16.15;9.90;;;;;;;1.35;83.27;100723.97;130121;1090;23283;-63
2020/12/18 04:19:01;;;;;;;18.95;9.70;;;;;;;1.36;81.91;100720.28;130223;1090;25021;-63
2020/12/18 04:21:28;;;;;;;17.20;9.43;;;;;;;1.35;81.72;100721.28;130110;1090;23229;-63
2020/12/18 04:24:07;;;;;;;19.73;9.77;;;;;;;1.32;81.95;100718.94;130294;1096;23155;-63
2020/12/18 04:26:38;;;;;;;16.00;9.80;;;;;;;1.32;82.44;100712.72;130068;1093;24102;-64
2020/12/18 04:29:06;;;;;;;15.50;9.33;;;;;;;1.33;82.39;100719.77;130227;1098;23235;-63
2020/12/18 04:31:34;;;;;;;16.15;9.45;;;;;;;1.34;81.67;100716.92;130128;1091;24227;-63
2020/12/18 04:34:02;;;;;;;14.50;7.97;;;;;;;1.35;82.20;100717.76;130257;1093;23162;-63
2020/12/18 04:36:49;;;;;;;15.45;9.58;;;;;;;1.34;82.76;100716.92;130103;1098;23173;-63
2020/12/18 04:39:20;;;;;;;14.57;9.43;;;;;;;1.33;82.82;100720.61;130229;1093;23269;-63
2020/12/18 04:41:48;;;;;;;18.10;10.85;;;;;;;1.32;81.78;100723.46;130112;1090;23885;-63
2020/12/18 04:44:16;;;;;;;16.47;9.60;;;;;;;1.32;82.46;100718.09;130284;1091;23795;-63
2020/12/18 04:46:54;;;;;;;16.50;9.93;;;;;;;1.31;82.86;100721.78;130100;1090;23246;-63
2020/12/18 04:49:22;;;;;;;15.60;9.75;;;;;;;1.28;82.64;100725.67;130235;1097;23156;-63
2020/12/18 04:51:55;;;;;;;17.03;9.80;;;;;;;1.25;82.11;100727.84;130132;1093;23145;-64
2020/12/18 04:54:30;;;;;;;16.00;9.47;;;;;;;1.26;81.82;100724.16;130190;1093;23853;-63
2020/12/18 04:57:03;;;;;;;15.95;9.15;;;;;;;1.27;82.11;100726.67;126755;1093;23315;-65
2020/12/18 04:59:31;;;;;;;16.60;8.75;;;;;;;1.28;82.59;100728.35;130229;1091;23240;-63
2020/12/18 05:02:08;;;;;;;16.97;9.55;;;;;;;1.28;82.27;100727.52;130098;1090;23165;-63
2020/12/18 05:04:40;;;;;;;20.53;11.57;;;;;;;1.28;82.06;100731.04;130279;1097;23251;-63
2020/12/18 05:07:20;;;;;;;23.83;11.47;;;;;;;1.28;82.92;100733.72;130052;1090;24102;-64
2020/12/18 05:09:51;;;;;;;24.50;13.30;;;;;;;1.29;82.63;100730.03;130242;1090;23237;-63
2020/12/18 05:12:30;;;;;;;35.37;15.03;;;;;;;1.32;82.77;100734.20;130146;1097;23172;-63
2020/12/18 05:14:58;;;;;;;39.75;16.00;;;;;;;1.30;82.94;100733.56;130234;1093;23205;-64
2020/12/18 05:17:34;;;;;;;43.20;18.10;;;;;;;1.21;83.08;100721.13;130101;1090;23901;-63
2020/12/18 05:20:05;;;;;;;38.80;15.35;;;;;;;1.32;82.04;100742.25;130232;1090;23294;-63
2020/12/18 05:22:32;;;;;;;28.20;13.05;;;;;;;1.32;82.63;100740.41;130089;1093;24889;-63
2020/12/18 05:25:22;;;;;;;32.70;14.57;;;;;;;1.33;81.86;100747.45;129915;1097;23297;-54
2020/12/18 05:27:54;;;;;;;24.85;13.95;;;;;;;1.34;82.08;100749.14;125917;1090;26763;-65
2020/12/18 05:30:22;;;;;;;31.55;14.45;;;;;;;1.33;83.07;100746.62;130211;1093;23201;-64
2020/12/18 05:33:18;;;;;;;26.17;14.33;;;;;;;1.34;81.88;100748.30;129970;1097;23258;-63
2020/12/18 05:36:15;;;;;;;26.35;14.75;;;;;;;1.32;82.26;100748.46;130259;1093;23307;-63
2020/12/18 05:38:43;;;;;;;29.65;15.65;;;;;;;1.31;81.97;100746.78;130073;1092;23882;-63
2020/12/18 05:41:20;;;;;;;28.30;15.55;;;;;;;1.31;82.37;100748.63;130353;1090;23166;-63
2020/12/18 05:43:51;;;;;;;29.73;17.23;;;;;;;1.30;82.48;100745.11;130103;1091;23197;-63
2020/12/18 05:46:45;;;;;;;24.40;13.93;;;;;;;1.31;82.10;100746.78;130250;1090;23182;-63
2020/12/18 05:49:31;;;;;;;31.25;16.80;;;;;;;1.30;81.86;100747.79;130142;1090;23220;-63
2020/12/18 05:52:08;;;;;;;;;;;;;;;1.33;82.68;100757.36;130288;1090;24096;-63
2020/12/18 05:54:49;;;;;;;25.20;12.25;;;;;;;1.34;82.18;100750.98;130086;1090;21412;-64
2020/12/18 05:57:21;;;;;;;31.10;13.67;;;;;;;1.36;82.57;100757.87;126433;1097;23342;-63
2020/12/18 05:59:57;;;;;;;25.47;12.17;;;;;;;1.37;82.44;100762.23;130083;1090;23236;-64
2020/12/18 06:02:45;;;;;;;25.90;14.00;;;;;;;1.37;81.78;100758.70;130258;1090;23171;-64
2020/12/18 06:05:19;;;;;;;28.40;13.70;;;;;;;1.38;82.00;100760.39;130140;1097;23302;-64
2020/12/18 06:08:17;;;;;;;23.45;12.35;;;;;;;1.37;82.43;100759.55;130361;1095;23180;-64
2020/12/18 06:10:51;;;;;;;27.25;13.35;;;;;;;1.36;82.38;100754.34;130044;1090;23198;-64
2020/12/18 06:13:44;;;;;;;31.90;15.80;;;;;;;1.34;81.62;100767.93;130216;1098;24146;-65
2020/12/18 06:16:16;;;;;;;34.80;15.30;;;;;;;1.34;81.09;100764.41;130064;1093;24196;-64
2020/12/18 06:18:50;;;;;;;30.85;14.30;;;;;;;1.33;81.69;100760.88;130165;1093;23260;-64
2020/12/18 06:21:25;;;;;;;32.75;13.90;;;;;;;1.35;81.73;100772.30;130073;1093;23270;-65
2020/12/18 06:23:54;;;;;;;26.73;13.80;;;;;;;1.35;82.18;100771.45;130180;1093;23155;-64
2020/12/18 06:26:41;;;;;;;32.40;14.97;;;;;;;1.37;81.82;100777.50;127295;1093;28867;-63
2020/12/18 06:29:35;;;;;;;31.63;14.73;;;;;;;1.38;82.35;100781.87;130048;1093;24063;-64
2020/12/18 06:32:28;;;;;;;25.37;13.60;;;;;;;1.37;82.05;100782.87;130194;1093;23160;-64
2020/12/18 06:35:30;;;;;;;25.70;12.50;;;;;;;1.37;81.82;100778.34;130054;1093;23244;-64
2020/12/18 06:38:15;;;;;;;24.43;13.17;;;;;;;1.35;82.52;100780.35;130174;1099;23171;-64
2020/12/18 06:40:53;;;;;;;22.90;12.47;;;;;;;1.35;81.93;100771.45;130092;1093;23823;-64
2020/12/18 06:43:35;;;;;;;21.80;12.10;;;;;;;1.34;82.05;100775.15;130193;1093;23320;-64
2020/12/18 06:46:26;;;;;;;23.00;12.30;;;;;;;1.36;82.27;100775.83;130075;1090;23394;-64
2020/12/18 06:49:12;;;;;;;23.50;13.40;;;;;;;1.35;82.24;100790.25;130234;1090;23351;-64
2020/12/18 06:51:58;;;;;;;23.90;13.13;;;;;;;1.37;82.37;100782.87;130063;1090;23175;-64
2020/12/18 06:54:57;;;;;;;23.60;13.00;;;;;;;1.36;82.00;100782.03;130270;1090;23213;-64
2020/12/18 06:57:33;;;;;;;25.15;13.65;;;;;;;1.36;81.32;100781.20;130123;1090;24341;-64
2020/12/18 07:00:22;;;;;;;27.90;15.13;;;;;;;1.37;81.57;100785.56;130258;1090;23183;-64
2020/12/18 07:02:49;;;;;;;38.55;18.85;;;;;;;1.38;82.03;100785.39;130247;1090;24215;-64
2020/12/18 07:05:35;;;;;;;34.55;18.80;;;;;;;1.37;81.28;100786.40;130380;1096;23188;-53
2020/12/18 07:08:07;;;;;;;37.27;19.70;;;;;;;1.36;82.20;100776.66;130219;1090;23280;-65
2020/12/18 07:10:44;;;;;;;40.80;18.63;;;;;;;1.37;82.47;100778.34;130359;1090;23274;-63
2020/12/18 07:13:15;;;;;;;42.58;20.82;;;;;;;1.38;82.15;100780.03;130248;1090;24269;-63
2020/12/18 07:15:43;;;;;;;45.23;21.50;;;;;;;1.39;82.33;100778.18;130355;1090;23174;-63
2020/12/18 07:18:22;;;;;;;40.75;19.75;;;;;;;1.41;81.53;100781.55;130267;1090;23739;-63
2020/12/18 07:20:54;;;;;;;50.98;23.42;;;;;;;1.41;82.33;100770.80;130381;1096;24230;-63
2020/12/18 07:23:22;;;;;;;45.87;23.07;;;;;;;1.39;82.36;100776.34;130241;1088;23179;-63
2020/12/18 07:25:50;;;;;;;36.95;18.80;;;;;;;1.39;81.67;100778.18;130333;1090;23173;-64
2020/12/18 07:28:20;;;;;;;44.43;21.63;;;;;;;1.39;81.72;100783.55;130176;1090;23169;-65
2020/12/18 07:30:48;;;;;;;40.83;21.03;;;;;;;1.41;81.80;100785.06;130391;1089;24558;-64
2020/12/18 07:33:16;;;;;;;40.15;21.65;;;;;;;1.38;81.18;100782.71;130060;1090;23142;-64
2020/12/18 07:35:49;;;;;;;37.03;18.60;;;;;;;1.37;81.59;100778.34;130339;1090;23228;-60
2020/12/18 07:38:27;;;;;;;32.90;18.00;;;;;;;1.36;81.58;100782.03;130256;1089;23256;-61
2020/12/18 07:41:14;;;;;;;33.00;16.25;;;;;;;1.35;81.56;100782.20;130321;1095;23196;-59
2020/12/18 07:43:46;;;;;;;32.53;16.43;;;;;;;1.33;81.93;100773.47;130140;1090;23231;-59
2020/12/18 07:46:19;;;;;;;31.53;17.47;;;;;;;1.33;81.99;100784.20;130380;1095;24106;-65
2020/12/18 07:48:47;;;;;;;28.90;15.80;;;;;;;1.32;81.40;100783.37;130084;1097;23251;-55
2020/12/18 07:51:20;;;;;;;30.83;18.33;;;;;;;1.32;82.03;100783.37;130354;1090;23164;-54
2020/12/18 07:53:52;;;;;;;34.45;19.90;;;;;;;1.32;81.46;100780.69;130406;1090;25537;-61
2020/12/18 07:56:21;;;;;;;38.33;20.10;;;;;;;1.33;82.15;100789.58;130477;1090;23156;-61
2020/12/18 07:59:06;;;;;;;35.50;20.10;;;;;;;1.32;82.18;100783.37;130374;1089;23294;-54
2020/12/18 08:01:34;;;;;;;42.90;20.10;;;;;;;1.33;82.04;100785.05;130525;1096;23284;-61
2020/12/18 08:04:10;;;;;;;32.97;17.17;;;;;;;1.32;81.05;100780.69;130353;1088;23234;-59
2020/12/18 08:06:38;;;;;;;29.50;16.17;;;;;;;1.33;81.83;100786.89;130498;1090;23195;-63
2020/12/18 08:09:11;;;;;;;29.85;16.60;;;;;;;1.36;81.49;100790.09;130372;1095;23182;-63
2020/12/18 08:11:52;;;;;;;29.73;17.07;;;;;;;1.38;81.48;100788.08;130502;1090;23197;-63
2020/12/18 08:14:19;;;;;;;30.85;16.45;;;;;;;1.40;82.42;100785.23;130380;1090;23223;-63
2020/12/18 08:16:47;;;;;;;29.83;14.77;;;;;;;1.42;81.11;100796.65;130500;1090;23274;-63
2020/12/18 08:19:14;;;;;;;25.87;13.17;;;;;;;1.41;81.15;100793.13;130373;1089;23171;-63
2020/12/18 08:21:45;;;;;;;24.10;12.60;;;;;;;1.39;81.47;100792.45;130504;1095;23742;-63
2020/12/18 08:24:30;;;;;;;24.35;12.55;;;;;;;1.39;80.72;100788.92;130367;1090;23246;-63
2020/12/18 08:27:02;;;;;;;29.83;15.60;;;;;;;1.39;81.33;100788.92;130511;1090;24938;-63
2020/12/18 08:29:31;;;;;;;25.75;14.45;;;;;;;1.39;81.59;100781.70;130336;1090;23282;-63
2020/12/18 08:32:00;;;;;;;29.80;14.10;;;;;;;1.40;81.21;100783.38;130463;1090;23193;-63
2020/12/18 08:34:32;;;;;;;30.00;14.10;;;;;;;1.40;81.43;100788.76;130344;1089;23268;-63
2020/12/18 08:37:00;;;;;;;28.07;15.23;;;;;;;1.39;80.91;100776.34;127182;1095;23308;-59
2020/12/18 08:39:29;;;;;;;34.55;16.55;;;;;;;1.41;81.55;100781.55;130566;1090;23178;-63
2020/12/18 08:41:56;;;;;;;27.80;14.60;;;;;;;1.39;80.50;100778.18;130461;1090;24533;-63
2020/12/18 08:44:27;;;;;;;35.00;15.17;;;;;;;1.38;81.25;100773.81;130550;1089;23148;-63
2020/12/18 08:46:55;;;;;;;30.03;16.43;;;;;;;1.36;81.62;100770.45;130353;1089;23186;-63
2020/12/18 08:49:25;;;;;;;28.90;15.00;;;;;;;1.35;81.83;100772.30;130551;1090;23330;-64
2020/12/18 08:51:53;;;;;;;26.20;14.45;;;;;;;1.36;80.64;100767.77;130369;1090;23155;-64
2020/12/18 08:54:34;;;;;;;27.83;12.53;;;;;;;1.38;80.64;100766.60;130468;1095;23846;-63
2020/12/18 08:57:24;;;;;;;22.10;11.80;;;;;;;1.38;81.21;100760.39;130357;1090;23197;-63
2020/12/18 09:00:13;;;;;;;21.65;11.00;;;;;;;1.38;81.08;100766.60;130494;1090;23303;-63
2020/12/18 09:02:47;;;;;;;19.05;11.00;;;;;;;1.38;80.85;100760.39;130349;1089;23291;-63
2020/12/18 09:05:17;;;;;;;21.85;12.00;;;;;;;1.36;80.77;100757.87;130534;1089;23221;-64
2020/12/18 09:07:57;;;;;;;24.20;12.35;;;;;;;1.36;80.86;100755.19;130352;1089;23160;-63
2020/12/18 09:10:26;;;;;;;29.53;15.13;;;;;;;1.35;80.93;100753.50;130459;1090;23252;-63
2020/12/18 09:13:18;;;;;;;29.80;17.55;;;;;;;1.35;81.09;100749.98;130354;1089;23207;-63
2020/12/18 09:16:04;;;;;;;21.80;12.65;;;;;;;1.37;81.00;100750.66;130496;1090;24111;-63
2020/12/18 09:18:46;;;;;;;21.85;11.25;;;;;;;1.38;81.93;100739.75;130532;1090;23200;-63
2020/12/18 09:21:15;;;;;;;20.90;10.90;;;;;;;1.44;81.39;100737.41;130345;1095;23574;-63
2020/12/18 09:23:44;;;;;;;20.95;11.05;;;;;;;1.46;80.98;100730.83;130558;1090;23188;-63
2020/12/18 09:26:26;;;;;;;33.50;15.40;;;;;;;1.50;81.36;100736.71;130420;1090;23176;-63
2020/12/18 09:28:59;;;;;;;18.37;10.10;;;;;;;1.53;81.56;100729.16;130551;1089;23220;-63
2020/12/18 09:31:27;;;;;;;14.40;8.57;;;;;;;1.56;81.25;100733.36;130514;1090;23168;-64
2020/12/18 09:33:55;;;;;;;15.93;9.37;;;;;;;1.59;80.98;100727.63;130403;1095;23164;-64
2020/12/18 09:36:24;;;;;;;15.75;9.50;;;;;;;1.62;81.01;100728.13;130537;1089;23261;-63
2020/12/18 09:38:52;;;;;;;16.03;9.83;;;;;;;1.57;80.84;100714.39;130360;1090;24155;-64
2020/12/18 09:41:21;;;;;;;17.40;10.17;;;;;;;1.69;80.46;100721.08;130485;1089;23298;-63
2020/12/18 09:43:49;;;;;;;15.70;9.53;;;;;;;1.70;80.52;100725.44;130328;1089;23268;-63
2020/12/18 09:46:18;;;;;;;17.00;9.50;;;;;;;1.72;80.09;100730.65;130561;1095;23163;-63
2020/12/18 09:48:49;;;;;;;13.60;8.40;;;;;;;1.73;80.39;100724.27;130380;1089;23199;-64
2020/12/18 09:51:18;;;;;;;13.43;9.03;;;;;;;1.76;79.92;100727.42;130483;1089;23330;-63
2020/12/18 09:53:45;;;;;;;14.90;8.50;;;;;;;1.81;80.19;100726.08;130336;1096;23223;-63
2020/12/18 09:56:14;;;;;;;14.75;9.20;;;;;;;1.86;80.20;100734.48;130524;1089;23187;-64
2020/12/18 09:58:45;;;;;;;18.47;9.40;;;;;;;1.89;79.85;100723.36;130335;1089;23315;-63
2020/12/18 10:01:23;;;;;;;15.50;8.97;;;;;;;1.93;79.70;100730.08;130534;1089;23225;-64
2020/12/18 10:03:52;;;;;;;15.10;8.77;;;;;;;1.94;79.26;100729.91;130359;1090;23160;-63
2020/12/18 10:06:26;;;;;;;21.40;10.90;;;;;;;1.96;79.64;100732.42;130590;1095;23228;-64
2020/12/18 10:08:55;;;;;;;22.10;11.05;;;;;;;1.94;79.38;100723.69;130369;1089;23211;-64
2020/12/18 10:11:27;;;;;;;26.55;11.75;;;;;;;1.95;79.44;100725.37;130565;1090;23284;-64
2020/12/18 10:13:55;;;;;;;18.85;10.25;;;;;;;1.92;79.29;100709.59;130399;1095;23863;-64
2020/12/18 10:16:22;;;;;;;79.20;26.93;;;;;;;1.93;79.96;100713.95;130375;1090;23157;-63
2020/12/18 10:18:50;;;;;;;20.65;10.70;;;;;;;1.93;78.91;100706.73;130385;1090;23168;-64
2020/12/18 10:21:17;;;;;;;16.20;9.07;;;;;;;1.96;79.40;100710.92;130555;1090;23232;-64
2020/12/18 10:23:45;;;;;;;21.40;10.77;;;;;;;1.97;79.58;100718.82;130417;1090;23195;-64
2020/12/18 10:26:12;;;;;;;17.40;10.67;;;;;;;1.97;79.52;100718.82;130492;1090;23754;-64
2020/12/18 10:28:40;;;;;;;19.93;11.67;;;;;;;1.97;78.89;100715.30;130519;1090;24417;-64
2020/12/18 10:31:13;;;;;;;20.25;11.00;;;;;;;1.96;79.19;100721.67;130483;1089;23323;-64
2020/12/18 10:33:41;;;;;;;20.13;12.10;;;;;;;1.96;79.83;100709.08;130544;1095;23251;-62
2020/12/18 10:36:11;;;;;;;19.07;11.80;;;;;;;1.92;78.88;100704.20;130395;1090;23284;-62
2020/12/18 10:38:38;;;;;;;22.50;13.15;;;;;;;1.89;79.17;100710.77;130492;1095;23215;-62
2020/12/18 10:41:09;;;;;;;26.83;14.47;;;;;;;1.87;78.85;100715.50;130360;1090;23199;-62
2020/12/18 10:43:38;;;;;;;21.10;12.95;;;;;;;1.88;78.82;100703.70;130467;1090;23213;-62
2020/12/18 10:46:06;;;;;;;19.63;9.97;;;;;;;1.90;79.18;100712.44;130366;1096;23224;-62
2020/12/18 10:48:34;;;;;;;18.30;9.97;;;;;;;1.90;79.16;100706.23;130484;1089;23262;-62
2020/12/18 10:51:02;;;;;;;17.13;9.20;;;;;;;1.89;78.72;100705.39;130369;1089;23170;-62
2020/12/18 10:53:29;;;;;;;13.67;8.80;;;;;;;1.88;79.41;100705.56;130532;1090;23194;-62
2020/12/18 10:55:57;;;;;;;14.17;8.67;;;;;;;1.86;78.86;100710.30;130357;1089;24145;-62
2020/12/18 10:58:26;;;;;;;13.20;8.50;;;;;;;1.83;79.24;100694.51;130508;1095;23339;-62
2020/12/18 11:00:58;;;;;;;14.77;8.93;;;;;;;1.81;79.15;100705.42;130342;1089;23307;-62
2020/12/18 11:03:26;;;;;;;17.30;10.35;;;;;;;1.77;79.11;100696.86;130573;1090;23139;-62
2020/12/18 11:05:53;;;;;;;19.50;12.07;;;;;;;1.76;78.79;100697.03;130372;1089;23780;-62
2020/12/18 11:08:21;;;;;;;17.87;10.97;;;;;;;1.71;79.68;100686.83;130534;1089;23330;-63
2020/12/18 11:10:49;;;;;;;15.20;9.25;;;;;;;1.72;78.96;100687.66;130402;1089;23185;-62
2020/12/18 11:13:16;;;;;;;12.20;7.60;;;;;;;1.71;78.86;100694.88;130526;1089;23216;-62
2020/12/18 11:15:44;;;;;;;12.00;7.50;;;;;;;1.69;78.85;100688.84;130386;1089;23144;-62
2020/12/18 11:18:12;;;;;;;12.60;8.80;;;;;;;1.71;80.01;100691.36;130566;1090;23264;-63
2020/12/18 11:20:42;;;;;;;13.15;7.55;;;;;;;1.70;79.09;100687.83;130527;1090;23184;-62
2020/12/18 11:23:11;;;;;;;12.93;8.90;;;;;;;1.71;78.76;100692.20;130458;1089;23123;-62
2020/12/18 11:25:39;;;;;;;15.90;9.70;;;;;;;1.71;79.06;100692.20;130548;1090;23157;-62
2020/12/18 11:28:06;;;;;;;14.67;9.27;;;;;;;1.69;79.36;100691.53;130387;1096;23971;-62
2020/12/18 11:30:34;;;;;;;16.85;10.60;;;;;;;1.69;79.40;100698.75;130503;1090;24097;-61
2020/12/18 11:33:02;;;;;;;17.03;11.13;;;;;;;1.65;79.89;100694.72;130279;1090;23183;-62
2020/12/18 11:35:29;;;;;;;16.77;10.67;;;;;;;1.63;79.04;100688.67;130505;1096;23169;-62
2020/12/18 11:37:56;;;;;;;18.70;11.47;;;;;;;1.64;79.82;100690.36;130270;1089;23212;-62
2020/12/18 11:40:26;;;;;;;17.23;11.20;;;;;;;1.65;80.28;100686.66;130549;1096;23169;-62